Time;durP1;ratioP1;P1;durP2;ratioP2;P2;SDS_P1;SDS_P2;PMS_P1;PMS_P2;Temp;Humidity;BMP_temperature;BMP_pressure;BME280_temperature;BME280_humidity;BME280_pressure;Samples;Min_cycle;Max_cycle;Signal;HPM_P1;HPM_P2
2022/03/25 00:02:01;;;;;;;0.30;0.30;;;;;;;;;;5052116;28;20041;-69
2022/03/25 00:04:27;;;;;;;2.53;2.38;;;;;;;;;;5035404;28;20404;-66
2022/03/25 00:06:55;;;;;;;0.10;0.10;;;;;;;;;;5070147;28;20044;-61
2022/03/25 00:09:23;;;;;;;0.32;0.32;;;;;;;;;;5036205;28;20078;-61
2022/03/25 00:11:53;;;;;;;0.45;0.45;;;;;;;;;;5052036;28;20123;-61
2022/03/25 00:14:21;;;;;;;0.10;0.10;;;;;;;;;;5035463;28;20043;-60
2022/03/25 00:16:50;;;;;;;0.10;0.10;;;;;;;;;;5072189;28;20032;-61
2022/03/25 00:19:18;;;;;;;0.13;0.13;;;;;;;;;;5039398;28;20035;-61
2022/03/25 00:21:44;;;;;;;0.10;0.10;;;;;;;;;;5055924;28;20029;-62
2022/03/25 00:24:20;;;;;;;0.85;0.85;;;;;;;;;;5073934;28;20025;-61
2022/03/25 00:26:49;;;;;;;3.45;3.17;;;;;;;;;;5039257;28;20040;-61
2022/03/25 00:29:15;;;;;;;1.45;1.35;;;;;;;;;;5039107;28;20087;-62
2022/03/25 00:31:40;;;;;;;0.20;0.20;;;;;;;;;;5039338;28;20048;-61
2022/03/25 00:34:07;;;;;;;0.20;0.20;;;;;;;;;;5054888;28;20028;-61
2022/03/25 00:36:35;;;;;;;4.18;1.65;;;;;;;;;;5039636;28;20079;-61
2022/03/25 00:39:01;;;;;;;0.75;0.73;;;;;;;;;;5073595;28;20052;-60
2022/03/25 00:41:26;;;;;;;0.10;0.10;;;;;;;;;;5073486;28;20392;-61
2022/03/25 00:43:52;;;;;;;0.17;0.17;;;;;;;;;;5073468;28;20043;-61
2022/03/25 00:46:17;;;;;;;0.20;0.20;;;;;;;;;;5055625;28;20083;-63
2022/03/25 00:48:44;;;;;;;0.10;0.10;;;;;;;;;;5073795;28;20032;-60
2022/03/25 00:51:10;;;;;;;0.20;0.20;;;;;;;;;;5073412;28;20353;-61
2022/03/25 00:53:36;;;;;;;0.63;0.63;;;;;;;;;;5073391;28;20041;-60
2022/03/25 00:56:01;;;;;;;1.02;0.90;;;;;;;;;;5055352;28;20054;-61
2022/03/25 00:58:28;;;;;;;1.35;1.00;;;;;;;;;;5055130;28;20074;-61
2022/03/25 01:00:53;;;;;;;1.95;0.85;;;;;;;;;;5073075;28;20064;-60
2022/03/25 01:03:19;;;;;;;0.20;0.20;;;;;;;;;;5073067;28;20086;-60
2022/03/25 01:05:44;;;;;;;0.20;0.20;;;;;;;;;;5073245;28;20028;-60
2022/03/25 01:08:11;;;;;;;0.10;0.10;;;;;;;;;;5055195;28;20423;-60
2022/03/25 01:10:37;;;;;;;0.20;0.20;;;;;;;;;;5073179;28;20037;-60
2022/03/25 01:13:03;;;;;;;2.50;1.90;;;;;;;;;;5072920;28;20424;-60
2022/03/25 01:15:29;;;;;;;0.50;0.50;;;;;;;;;;5038383;28;20040;-61
2022/03/25 01:17:54;;;;;;;3.00;2.80;;;;;;;;;;5055155;28;20041;-61
2022/03/25 01:20:20;;;;;;;0.93;0.93;;;;;;;;;;5073012;28;20032;-60
2022/03/25 01:22:46;;;;;;;2.30;1.85;;;;;;;;;;5055002;28;20044;-60
2022/03/25 01:25:12;;;;;;;1.55;1.23;;;;;;;;;;5054913;28;20029;-60
2022/03/25 01:27:38;;;;;;;5.32;3.72;;;;;;;;;;5054825;28;20036;-61
2022/03/25 01:30:04;;;;;;;2.50;2.33;;;;;;;;;;5072508;28;20593;-60
2022/03/25 01:32:30;;;;;;;1.20;1.10;;;;;;;;;;5055022;28;20048;-60
2022/03/25 01:34:55;;;;;;;0.30;0.30;;;;;;;;;;5072604;28;20025;-60
2022/03/25 01:37:23;;;;;;;1.30;1.20;;;;;;;;;;5072714;28;20036;-61
2022/03/25 01:39:49;;;;;;;13.23;3.22;;;;;;;;;;5054737;28;20035;-60
2022/03/25 01:42:15;;;;;;;3.88;2.25;;;;;;;;;;5038103;28;20028;-60
2022/03/25 01:44:41;;;;;;;1.77;1.65;;;;;;;;;;5038161;28;20044;-60
2022/03/25 01:47:08;;;;;;;3.60;2.42;;;;;;;;;;5072476;28;20040;-60
2022/03/25 01:49:34;;;;;;;3.17;2.85;;;;;;;;;;5038047;28;20038;-60
2022/03/25 01:52:01;;;;;;;1.58;1.13;;;;;;;;;;5054569;28;20028;-60
2022/03/25 01:54:27;;;;;;;1.88;1.30;;;;;;;;;;5054548;28;20506;-61
2022/03/25 01:56:58;;;;;;;1.52;0.82;;;;;;;;;;5037819;28;20040;-60
2022/03/25 01:59:24;;;;;;;1.23;0.85;;;;;;;;;;5038038;28;20067;-60
2022/03/25 02:01:50;;;;;;;0.57;0.55;;;;;;;;;;5037970;28;20420;-60
2022/03/25 02:04:17;;;;;;;0.20;0.20;;;;;;;;;;5072499;28;20036;-59
2022/03/25 02:06:43;;;;;;;5.03;4.50;;;;;;;;;;5038014;28;20066;-60
2022/03/25 02:09:09;;;;;;;0.10;0.10;;;;;;;;;;5072351;28;20384;-60
2022/03/25 02:11:37;;;;;;;10.15;1.55;;;;;;;;;;5054151;28;20032;-61
2022/03/25 02:14:03;;;;;;;0.10;0.10;;;;;;;;;;5037783;28;20380;-60
2022/03/25 02:16:39;;;;;;;0.10;0.10;;;;;;;;;;5054396;28;20037;-61
2022/03/25 02:19:05;;;;;;;2.28;1.50;;;;;;;;;;5054196;28;20508;-60
2022/03/25 02:21:32;;;;;;;0.10;0.10;;;;;;;;;;5054166;28;20033;-60
2022/03/25 02:23:58;;;;;;;0.20;0.20;;;;;;;;;;5037758;28;20024;-60
2022/03/25 02:26:24;;;;;;;0.25;0.25;;;;;;;;;;5053952;28;20090;-60
2022/03/25 02:28:49;;;;;;;0.15;0.15;;;;;;;;;;5037653;28;20024;-61
2022/03/25 02:31:17;;;;;;;0.20;0.20;;;;;;;;;;5072306;28;20033;-60
2022/03/25 02:33:43;;;;;;;0.20;0.20;;;;;;;;;;5054659;28;20068;-60
2022/03/25 02:36:09;;;;;;;0.10;0.10;;;;;;;;;;5037776;28;20037;-60
2022/03/25 02:38:35;;;;;;;0.20;0.20;;;;;;;;;;5072007;28;20094;-60
2022/03/25 02:41:00;;;;;;;0.20;0.20;;;;;;;;;;5053986;28;20381;-60
2022/03/25 02:43:29;;;;;;;0.10;0.10;;;;;;;;;;5071953;28;20029;-59
2022/03/25 02:46:03;;;;;;;0.10;0.10;;;;;;;;;;5053933;28;20067;-60
2022/03/25 02:48:29;;;;;;;0.10;0.10;;;;;;;;;;5037354;28;20027;-60
2022/03/25 02:50:55;;;;;;;0.10;0.10;;;;;;;;;;5053837;28;20029;-60
2022/03/25 02:53:20;;;;;;;0.10;0.10;;;;;;;;;;5053776;28;20518;-61
2022/03/25 02:55:46;;;;;;;0.10;0.10;;;;;;;;;;5053989;28;20045;-61
2022/03/25 02:58:12;;;;;;;0.10;0.10;;;;;;;;;;5073800;28;20107;-60
2022/03/25 03:00:37;;;;;;;0.10;0.10;;;;;;;;;;5075374;28;20037;-60
2022/03/25 03:03:03;;;;;;;0.10;0.10;;;;;;;;;;5075095;28;20037;-60
2022/03/25 03:05:29;;;;;;;0.17;0.17;;;;;;;;;;5075234;28;20071;-60
2022/03/25 03:07:55;;;;;;;0.10;0.10;;;;;;;;;;5057090;28;20093;-60
2022/03/25 03:10:21;;;;;;;0.10;0.10;;;;;;;;;;5074796;28;20037;-60
2022/03/25 03:12:47;;;;;;;0.10;0.10;;;;;;;;;;5040605;28;20035;-60
2022/03/25 03:15:15;;;;;;;0.10;0.10;;;;;;;;;;5040535;28;20028;-60
2022/03/25 03:17:41;;;;;;;0.20;0.20;;;;;;;;;;5040406;28;20507;-60
2022/03/25 03:20:07;;;;;;;0.10;0.10;;;;;;;;;;5075094;28;20073;-60
2022/03/25 03:22:32;;;;;;;0.10;0.10;;;;;;;;;;5074776;28;20036;-60
2022/03/25 03:24:58;;;;;;;0.10;0.10;;;;;;;;;;5074606;28;20033;-61
2022/03/25 03:27:24;;;;;;;0.10;0.10;;;;;;;;;;5074991;28;20034;-60
2022/03/25 03:29:50;;;;;;;0.10;0.10;;;;;;;;;;5040383;28;20060;-60
2022/03/25 03:32:18;;;;;;;0.10;0.10;;;;;;;;;;5074869;28;20420;-60
2022/03/25 03:34:44;;;;;;;0.10;0.10;;;;;;;;;;5040096;28;20037;-60
2022/03/25 03:37:09;;;;;;;0.30;0.30;;;;;;;;;;5074648;28;20028;-60
2022/03/25 03:39:35;;;;;;;0.73;0.73;;;;;;;;;;5074567;28;20060;-60
2022/03/25 03:42:03;;;;;;;0.10;0.10;;;;;;;;;;5039961;28;20025;-60
2022/03/25 03:44:28;;;;;;;0.08;0.08;;;;;;;;;;5056749;28;20039;-60
2022/03/25 03:46:54;;;;;;;0.22;0.22;;;;;;;;;;5074485;28;20464;-60
2022/03/25 03:49:19;;;;;;;0.10;0.10;;;;;;;;;;5056426;28;20488;-60
2022/03/25 03:51:45;;;;;;;1.58;1.48;;;;;;;;;;5056494;28;20383;-60
2022/03/25 03:54:10;;;;;;;0.10;0.10;;;;;;;;;;5056301;28;20040;-60
2022/03/25 03:56:36;;;;;;;0.10;0.10;;;;;;;;;;5040155;28;20024;-59
2022/03/25 03:59:02;;;;;;;0.03;0.03;;;;;;;;;;5074296;28;20086;-60
2022/03/25 04:01:27;;;;;;;0.10;0.10;;;;;;;;;;5039866;28;20074;-61
2022/03/25 04:03:53;;;;;;;0.10;0.10;;;;;;;;;;5068752;28;20369;-61
2022/03/25 04:06:19;;;;;;;0.10;0.10;;;;;;;;;;5052027;28;20135;-63
2022/03/25 04:08:45;;;;;;;0.10;0.10;;;;;;;;;;5070196;28;20124;-69
2022/03/25 04:11:10;;;;;;;0.95;0.95;;;;;;;;;;5035720;28;20058;-61
2022/03/25 04:13:36;;;;;;;0.10;0.10;;;;;;;;;;5070323;28;20036;-61
2022/03/25 04:16:01;;;;;;;0.10;0.10;;;;;;;;;;5070296;28;20175;-60
2022/03/25 04:18:27;;;;;;;0.10;0.10;;;;;;;;;;5070113;28;20032;-63
2022/03/25 04:20:52;;;;;;;0.10;0.10;;;;;;;;;;5052126;28;20380;-61
2022/03/25 04:23:18;;;;;;;2.85;2.65;;;;;;;;;;5069910;28;20041;-61
2022/03/25 04:25:43;;;;;;;0.10;0.10;;;;;;;;;;5070160;28;20037;-60
2022/03/25 04:28:09;;;;;;;0.10;0.10;;;;;;;;;;5069805;28;20120;-60
2022/03/25 04:30:36;;;;;;;0.20;0.20;;;;;;;;;;5045466;28;20057;-64
2022/03/25 04:33:02;;;;;;;0.10;0.10;;;;;;;;;;5015571;28;20036;-65
2022/03/25 04:35:28;;;;;;;0.10;0.10;;;;;;;;;;5031967;28;20132;-64
2022/03/25 04:37:54;;;;;;;0.10;0.10;;;;;;;;;;5016128;28;20458;-62
2022/03/25 04:40:20;;;;;;;0.10;0.10;;;;;;;;;;5015013;28;20459;-61
2022/03/25 04:42:50;;;;;;;0.10;0.10;;;;;;;;;;5031745;28;20025;-61
2022/03/25 04:45:16;;;;;;;0.10;0.10;;;;;;;;;;5015431;28;20033;-66
2022/03/25 04:47:42;;;;;;;0.10;0.10;;;;;;;;;;5049941;28;20029;-61
2022/03/25 04:50:09;;;;;;;0.10;0.10;;;;;;;;;;5031268;28;20033;-61
2022/03/25 04:52:35;;;;;;;0.10;0.10;;;;;;;;;;5031521;28;20036;-65
2022/03/25 04:55:00;;;;;;;0.10;0.10;;;;;;;;;;5015076;28;20820;-60
2022/03/25 04:57:26;;;;;;;0.10;0.10;;;;;;;;;;5049490;28;20112;-59
2022/03/25 04:59:52;;;;;;;0.10;0.10;;;;;;;;;;5015260;28;20049;-62
2022/03/25 05:02:17;;;;;;;0.10;0.10;;;;;;;;;;5049110;28;20124;-62
2022/03/25 05:04:43;;;;;;;0.10;0.10;;;;;;;;;;5031461;28;20074;-65
2022/03/25 05:07:15;;;;;;;0.28;0.28;;;;;;;;;;5048995;28;20031;-69
2022/03/25 05:09:41;;;;;;;0.13;0.13;;;;;;;;;;5014898;28;20095;-67
2022/03/25 05:12:07;;;;;;;0.10;0.10;;;;;;;;;;5049219;28;20041;-64
2022/03/25 05:14:34;;;;;;;0.40;0.40;;;;;;;;;;5047897;28;20033;-62
2022/03/25 05:16:59;;;;;;;0.10;0.10;;;;;;;;;;5075459;28;20082;-63
2022/03/25 05:19:25;;;;;;;0.10;0.10;;;;;;;;;;5069143;28;20040;-61
2022/03/25 05:21:50;;;;;;;0.10;0.10;;;;;;;;;;5068740;28;20078;-62
2022/03/25 05:24:16;;;;;;;0.10;0.10;;;;;;;;;;5050647;28;20049;-62
2022/03/25 05:26:41;;;;;;;0.10;0.10;;;;;;;;;;5051519;28;20434;-67
2022/03/25 05:29:07;;;;;;;0.10;0.10;;;;;;;;;;5069248;28;20036;-62
2022/03/25 05:31:32;;;;;;;0.10;0.10;;;;;;;;;;5069286;28;20029;-61
2022/03/25 05:33:58;;;;;;;0.28;0.28;;;;;;;;;;5034401;28;20415;-62
2022/03/25 05:36:23;;;;;;;0.20;0.20;;;;;;;;;;5068471;28;20380;-62
2022/03/25 05:38:51;;;;;;;0.10;0.10;;;;;;;;;;5068695;28;20415;-62
2022/03/25 05:41:17;;;;;;;0.00;0.00;;;;;;;;;;5051346;28;20361;-62
2022/03/25 05:43:42;;;;;;;0.13;0.13;;;;;;;;;;5068791;28;20119;-62
2022/03/25 05:46:08;;;;;;;0.10;0.10;;;;;;;;;;5068630;28;20384;-62
2022/03/25 05:48:34;;;;;;;0.10;0.10;;;;;;;;;;5068733;28;20134;-66
2022/03/25 05:50:59;;;;;;;0.10;0.10;;;;;;;;;;5068593;28;20033;-67
2022/03/25 05:53:26;;;;;;;0.10;0.10;;;;;;;;;;5050597;28;20025;-61
2022/03/25 05:55:52;;;;;;;0.10;0.10;;;;;;;;;;5034076;28;20443;-61
2022/03/25 05:58:17;;;;;;;0.10;0.10;;;;;;;;;;5068200;28;20127;-61
2022/03/25 06:00:43;;;;;;;0.10;0.10;;;;;;;;;;5068903;28;20033;-63
2022/03/25 06:03:10;;;;;;;0.10;0.10;;;;;;;;;;5068559;28;20480;-61
2022/03/25 06:05:35;;;;;;;0.10;0.10;;;;;;;;;;5068738;28;20056;-61
2022/03/25 06:08:01;;;;;;;0.10;0.10;;;;;;;;;;5050640;28;20041;-61
2022/03/25 06:10:26;;;;;;;0.15;0.15;;;;;;;;;;5068502;28;20032;-61
2022/03/25 06:12:52;;;;;;;0.10;0.10;;;;;;;;;;5068626;28;20542;-61
2022/03/25 06:15:17;;;;;;;0.10;0.10;;;;;;;;;;5050462;28;20087;-61
2022/03/25 06:17:44;;;;;;;0.10;0.10;;;;;;;;;;5068500;28;20032;-61
2022/03/25 06:20:11;;;;;;;0.10;0.10;;;;;;;;;;5068057;28;20268;-61
2022/03/25 06:22:39;;;;;;;0.10;0.10;;;;;;;;;;5066107;28;20177;-64
2022/03/25 06:25:06;;;;;;;0.10;0.10;;;;;;;;;;5048476;28;20218;-63
2022/03/25 06:27:31;;;;;;;0.10;0.10;;;;;;;;;;5066240;28;20067;-62
2022/03/25 06:29:56;;;;;;;0.10;0.10;;;;;;;;;;5068774;28;20059;-63
2022/03/25 06:32:22;;;;;;;0.10;0.10;;;;;;;;;;5063751;28;20036;-64
2022/03/25 06:34:47;;;;;;;0.95;0.88;;;;;;;;;;5074247;28;20032;-62
2022/03/25 06:37:13;;;;;;;0.10;0.10;;;;;;;;;;5067794;28;20055;-63
2022/03/25 06:39:39;;;;;;;0.20;0.20;;;;;;;;;;5068132;28;20037;-61
2022/03/25 06:42:04;;;;;;;2.65;2.55;;;;;;;;;;5069244;28;20039;-62
2022/03/25 06:44:30;;;;;;;0.10;0.10;;;;;;;;;;5067730;28;20037;-62
2022/03/25 06:46:56;;;;;;;1.23;1.13;;;;;;;;;;5068075;28;20078;-62
2022/03/25 06:49:22;;;;;;;0.10;0.10;;;;;;;;;;5069248;28;20399;-61
2022/03/25 06:51:49;;;;;;;0.20;0.20;;;;;;;;;;5067875;28;20032;-62
2022/03/25 06:54:15;;;;;;;0.10;0.10;;;;;;;;;;5049439;28;20035;-62
2022/03/25 06:56:41;;;;;;;0.20;0.20;;;;;;;;;;5067445;28;20055;-61
2022/03/25 06:59:07;;;;;;;0.10;0.10;;;;;;;;;;5066390;28;20072;-62
2022/03/25 07:01:32;;;;;;;0.30;0.30;;;;;;;;;;5049194;28;20074;-64
2022/03/25 07:03:58;;;;;;;0.20;0.20;;;;;;;;;;5049539;28;20090;-62
2022/03/25 07:06:24;;;;;;;0.20;0.20;;;;;;;;;;5066960;28;20391;-65
2022/03/25 07:08:54;;;;;;;0.10;0.10;;;;;;;;;;5050557;28;20044;-64
2022/03/25 07:11:20;;;;;;;0.20;0.20;;;;;;;;;;5068901;28;20033;-62
2022/03/25 07:13:46;;;;;;;0.20;0.20;;;;;;;;;;5068748;28;20031;-64
2022/03/25 07:16:11;;;;;;;0.63;0.60;;;;;;;;;;5068312;28;20079;-63
2022/03/25 07:18:37;;;;;;;0.20;0.20;;;;;;;;;;5080493;28;20044;-63
2022/03/25 07:21:03;;;;;;;0.20;0.20;;;;;;;;;;5068577;28;20066;-62
2022/03/25 07:23:28;;;;;;;0.20;0.20;;;;;;;;;;5068430;28;20040;-64
2022/03/25 07:25:54;;;;;;;0.20;0.20;;;;;;;;;;5068904;28;20032;-65
2022/03/25 07:28:19;;;;;;;0.30;0.30;;;;;;;;;;5068785;28;20036;-63
2022/03/25 07:30:45;;;;;;;0.52;0.52;;;;;;;;;;5068851;28;20043;-62
2022/03/25 07:33:11;;;;;;;0.20;0.20;;;;;;;;;;5050980;28;20028;-63
2022/03/25 07:35:36;;;;;;;0.20;0.20;;;;;;;;;;5068050;28;20044;-64
2022/03/25 07:38:02;;;;;;;0.20;0.20;;;;;;;;;;5068746;28;20036;-64
2022/03/25 07:40:28;;;;;;;0.40;0.40;;;;;;;;;;5068158;28;20024;-62
2022/03/25 07:42:53;;;;;;;0.40;0.40;;;;;;;;;;5067783;28;20047;-64
2022/03/25 07:45:19;;;;;;;0.20;0.20;;;;;;;;;;5068125;28;20225;-63
2022/03/25 07:47:48;;;;;;;32.42;25.75;;;;;;;;;;5068058;28;20075;-62
2022/03/25 07:50:16;;;;;;;0.75;0.75;;;;;;;;;;5033723;28;20683;-63
2022/03/25 07:52:41;;;;;;;1.65;1.55;;;;;;;;;;5068092;28;20040;-64
2022/03/25 07:55:09;;;;;;;0.20;0.20;;;;;;;;;;5067138;28;20028;-63
2022/03/25 07:57:35;;;;;;;0.20;0.20;;;;;;;;;;5049595;28;20039;-62
2022/03/25 08:00:02;;;;;;;0.25;0.25;;;;;;;;;;5067530;28;20025;-64
2022/03/25 08:02:30;;;;;;;0.10;0.10;;;;;;;;;;5049426;28;20040;-63
2022/03/25 08:04:56;;;;;;;0.20;0.20;;;;;;;;;;5067446;28;20059;-64
2022/03/25 08:07:22;;;;;;;0.13;0.13;;;;;;;;;;5068697;28;20124;-64
2022/03/25 08:09:47;;;;;;;0.50;0.50;;;;;;;;;;5067884;28;20040;-63
2022/03/25 08:12:13;;;;;;;0.20;0.20;;;;;;;;;;5067586;28;20094;-63
2022/03/25 08:14:39;;;;;;;0.10;0.10;;;;;;;;;;5067884;28;20028;-63
2022/03/25 08:17:04;;;;;;;0.20;0.20;;;;;;;;;;5067477;28;20044;-63
2022/03/25 08:19:31;;;;;;;0.20;0.20;;;;;;;;;;5067988;28;20079;-63
2022/03/25 08:21:56;;;;;;;0.70;0.70;;;;;;;;;;5067398;28;20106;-63
2022/03/25 08:29:51;;;;;;;0.43;0.43;;;;;;;;;;5067029;28;20085;-62
2022/03/25 08:32:17;;;;;;;0.20;0.20;;;;;;;;;;5066950;28;20427;-63
2022/03/25 08:34:42;;;;;;;0.10;0.10;;;;;;;;;;5066236;28;20040;-63
2022/03/25 08:37:08;;;;;;;0.28;0.28;;;;;;;;;;5048709;28;20055;-63
2022/03/25 08:39:34;;;;;;;0.60;0.60;;;;;;;;;;5032179;28;20052;-64
2022/03/25 08:41:59;;;;;;;0.20;0.20;;;;;;;;;;5069718;28;20025;-62
2022/03/25 08:44:25;;;;;;;0.30;0.30;;;;;;;;;;5066086;28;20140;-63
2022/03/25 08:46:50;;;;;;;0.20;0.20;;;;;;;;;;5075677;28;20055;-63
2022/03/25 08:49:16;;;;;;;0.10;0.10;;;;;;;;;;5068706;28;20046;-63
2022/03/25 08:51:42;;;;;;;0.30;0.30;;;;;;;;;;5087644;28;20876;-64
2022/03/25 08:54:08;;;;;;;0.20;0.20;;;;;;;;;;5077545;28;20467;-63
2022/03/25 08:56:34;;;;;;;0.20;0.20;;;;;;;;;;5065921;28;20071;-64
2022/03/25 08:59:00;;;;;;;0.10;0.10;;;;;;;;;;5065735;28;20040;-64
2022/03/25 09:01:25;;;;;;;0.20;0.20;;;;;;;;;;5048807;28;20050;-64
2022/03/25 09:03:51;;;;;;;0.35;0.35;;;;;;;;;;5066589;28;20090;-63
2022/03/25 09:06:17;;;;;;;0.75;0.75;;;;;;;;;;5049125;28;20039;-64
2022/03/25 09:08:42;;;;;;;0.95;0.95;;;;;;;;;;5066881;28;20365;-64
2022/03/25 09:11:09;;;;;;;0.30;0.30;;;;;;;;;;5066786;28;20058;-63
2022/03/25 09:13:35;;;;;;;0.10;0.10;;;;;;;;;;5069110;28;20452;-64
2022/03/25 09:16:01;;;;;;;1.73;1.67;;;;;;;;;;5086084;28;20085;-64
2022/03/25 09:18:27;;;;;;;0.10;0.10;;;;;;;;;;5085517;28;20395;-63
2022/03/25 09:20:52;;;;;;;0.10;0.10;;;;;;;;;;5085850;28;20036;-66
2022/03/25 09:23:18;;;;;;;0.20;0.20;;;;;;;;;;5085817;28;20036;-65
2022/03/25 09:25:43;;;;;;;0.20;0.20;;;;;;;;;;5085815;28;20032;-65
2022/03/25 09:28:09;;;;;;;0.10;0.10;;;;;;;;;;5085855;28;20032;-65
2022/03/25 09:30:35;;;;;;;0.20;0.20;;;;;;;;;;5085973;28;20071;-65
2022/03/25 09:33:00;;;;;;;0.20;0.20;;;;;;;;;;5085368;28;20032;-66
2022/03/25 09:35:26;;;;;;;0.13;0.13;;;;;;;;;;5066984;28;20396;-66
2022/03/25 09:37:52;;;;;;;1.52;1.42;;;;;;;;;;5085579;28;20624;-67
2022/03/25 09:40:21;;;;;;;0.20;0.20;;;;;;;;;;5085387;28;20101;-66
2022/03/25 09:42:47;;;;;;;0.20;0.20;;;;;;;;;;5086368;28;20573;-66
2022/03/25 09:45:15;;;;;;;1.25;1.13;;;;;;;;;;5086731;28;20491;-66
2022/03/25 09:47:41;;;;;;;0.20;0.20;;;;;;;;;;5086513;28;20040;-65
2022/03/25 09:50:08;;;;;;;0.40;0.40;;;;;;;;;;5086549;28;20036;-67
2022/03/25 09:52:34;;;;;;;0.30;0.30;;;;;;;;;;5086875;28;20032;-66
2022/03/25 09:55:00;;;;;;;0.30;0.30;;;;;;;;;;5087367;28;20085;-65
2022/03/25 09:57:26;;;;;;;0.30;0.30;;;;;;;;;;5086930;28;20221;-66
2022/03/25 09:59:52;;;;;;;0.45;0.45;;;;;;;;;;5086278;28;20036;-67
2022/03/25 10:02:17;;;;;;;0.38;0.38;;;;;;;;;;5086246;28;20507;-67
2022/03/25 10:04:44;;;;;;;2.50;2.30;;;;;;;;;;5087045;28;20069;-64
2022/03/25 10:07:16;;;;;;;0.40;0.40;;;;;;;;;;5068392;28;20055;-66
2022/03/25 10:09:42;;;;;;;0.40;0.40;;;;;;;;;;5086641;28;20029;-66
2022/03/25 10:12:26;;;;;;;0.93;0.93;;;;;;;;;;5085844;28;20038;-68
2022/03/25 10:15:09;;;;;;;0.75;0.75;;;;;;;;;;5087058;28;20051;-67
2022/03/25 10:17:52;;;;;;;0.55;0.55;;;;;;;;;;5086582;28;20032;-67
2022/03/25 10:20:19;;;;;;;0.45;0.45;;;;;;;;;;5086304;28;20570;-66
2022/03/25 10:22:57;;;;;;;0.30;0.30;;;;;;;;;;5085754;28;20028;-66
2022/03/25 10:25:32;;;;;;;0.70;0.70;;;;;;;;;;5086255;28;20092;-66
2022/03/25 10:27:58;;;;;;;2.50;2.40;;;;;;;;;;5086555;28;20537;-67
2022/03/25 10:30:43;;;;;;;0.50;0.50;;;;;;;;;;5086034;28;20028;-66
2022/03/25 10:33:13;;;;;;;0.93;0.90;;;;;;;;;;5085625;28;20090;-67
2022/03/25 10:35:51;;;;;;;6.35;5.80;;;;;;;;;;5085620;28;20035;-67
2022/03/25 10:38:16;;;;;;;0.98;0.95;;;;;;;;;;5086115;28;20054;-66
2022/03/25 12:55:47;;;;;;;12.35;4.03;;;;;;;;;;5047448;28;20508;-66
2022/03/25 12:58:14;;;;;;;1.65;1.25;;;;;;;;;;5046000;28;20032;-66
2022/03/25 13:04:11;;;;;;;3.30;2.45;;;;;;;;;;5045544;28;20128;-66
2022/03/25 13:06:36;;;;;;;1.45;1.33;;;;;;;;;;5046147;28;20385;-67
2022/03/25 13:09:02;;;;;;;5.10;3.60;;;;;;;;;;5045496;28;20436;-67
2022/03/25 13:11:28;;;;;;;0.20;0.20;;;;;;;;;;5045270;28;20861;-65
2022/03/25 13:13:53;;;;;;;3.25;1.98;;;;;;;;;;5027808;28;20040;-66
2022/03/25 13:16:23;;;;;;;0.82;0.82;;;;;;;;;;5045580;28;20524;-66
2022/03/25 13:18:48;;;;;;;6.07;4.35;;;;;;;;;;5047202;28;20154;-67
2022/03/25 13:21:14;;;;;;;0.63;0.63;;;;;;;;;;5047228;28;20029;-67
2022/03/25 13:23:39;;;;;;;3.47;2.20;;;;;;;;;;5046507;28;20143;-66
2022/03/25 13:26:06;;;;;;;2.58;1.15;;;;;;;;;;5047127;28;20480;-65
2022/03/25 13:28:34;;;;;;;5.75;3.88;;;;;;;;;;5047244;28;20453;-66
2022/03/25 13:31:01;;;;;;;6.25;3.28;;;;;;;;;;5047038;28;20029;-66
2022/03/25 13:33:28;;;;;;;4.40;3.28;;;;;;;;;;5047375;28;20068;-66
2022/03/25 13:36:03;;;;;;;1.13;0.47;;;;;;;;;;5046410;28;20033;-67
2022/03/25 13:38:37;;;;;;;1.25;1.02;;;;;;;;;;5046837;28;20467;-63
2022/03/25 13:41:11;;;;;;;3.33;2.90;;;;;;;;;;5046310;28;20051;-63
2022/03/25 13:43:38;;;;;;;3.80;2.55;;;;;;;;;;5046555;28;20025;-62
2022/03/25 13:46:07;;;;;;;9.70;4.85;;;;;;;;;;5045696;28;20028;-63
2022/03/25 13:48:41;;;;;;;1.05;0.75;;;;;;;;;;5046687;28;20488;-61
2022/03/25 13:51:35;;;;;;;3.20;1.92;;;;;;;;;;5046995;28;20032;-61
2022/03/25 13:54:11;;;;;;;6.82;4.43;;;;;;;;;;5037177;28;20059;-61
2022/03/25 13:56:37;;;;;;;6.53;4.05;;;;;;;;;;5047501;28;20048;-64
2022/03/25 13:59:04;;;;;;;2.50;1.02;;;;;;;;;;5084421;28;20096;-62
2022/03/25 14:01:31;;;;;;;5.03;3.10;;;;;;;;;;5077066;28;20050;-61
2022/03/25 14:04:07;;;;;;;5.00;2.25;;;;;;;;;;5065092;28;20040;-61
2022/03/25 14:06:39;;;;;;;6.18;1.70;;;;;;;;;;5066183;28;20568;-61
2022/03/25 14:09:04;;;;;;;2.50;1.58;;;;;;;;;;5066214;28;20037;-60
2022/03/25 14:11:34;;;;;;;6.00;3.03;;;;;;;;;;5065903;28;20116;-62
2022/03/25 14:14:00;;;;;;;10.00;5.10;;;;;;;;;;5047902;28;20070;-60
2022/03/25 14:16:30;;;;;;;5.63;4.15;;;;;;;;;;5065769;28;20120;-61
2022/03/25 14:18:55;;;;;;;;;;;;;;;;;;5066647;28;20036;-60
2022/03/25 14:21:31;;;;;;;7.18;4.65;;;;;;;;;;5065638;28;19912;-63
2022/03/25 14:26:42;;;;;;;0.10;0.10;;;;;;;;;;5046276;28;20047;-61
2022/03/25 14:29:08;;;;;;;4.32;3.72;;;;;;;;;;5028274;28;20366;-61
2022/03/25 14:31:34;;;;;;;0.65;0.65;;;;;;;;;;5045681;28;20047;-62
2022/03/25 14:34:00;;;;;;;3.22;2.22;;;;;;;;;;5045798;28;20033;-61
2022/03/25 14:36:25;;;;;;;5.20;2.83;;;;;;;;;;5044624;28;20366;-61
2022/03/25 14:38:51;;;;;;;3.35;1.23;;;;;;;;;;5045830;28;20071;-62
2022/03/25 14:41:16;;;;;;;6.53;4.05;;;;;;;;;;5046167;28;20464;-61
2022/03/25 14:43:41;;;;;;;1.27;1.00;;;;;;;;;;5045803;28;20041;-60
2022/03/25 14:46:07;;;;;;;5.75;3.25;;;;;;;;;;5045353;28;20043;-60
2022/03/25 14:48:51;;;;;;;3.50;2.28;;;;;;;;;;5029007;28;20029;-60
2022/03/25 14:51:17;;;;;;;2.15;1.35;;;;;;;;;;5065082;28;20045;-61
2022/03/25 14:53:43;;;;;;;5.85;3.85;;;;;;;;;;5067367;28;20479;-61
2022/03/25 14:56:08;;;;;;;3.08;1.70;;;;;;;;;;5068654;28;20047;-60
2022/03/25 14:58:34;;;;;;;6.22;2.70;;;;;;;;;;5068396;28;20116;-60
2022/03/25 15:00:59;;;;;;;7.70;3.97;;;;;;;;;;5068735;28;20494;-60
2022/03/25 15:03:25;;;;;;;3.28;2.05;;;;;;;;;;5050389;28;20068;-61
2022/03/25 15:05:50;;;;;;;4.13;3.10;;;;;;;;;;5069069;28;20032;-64
2022/03/25 15:08:16;;;;;;;2.85;2.00;;;;;;;;;;5068779;28;20104;-61
2022/03/25 15:10:42;;;;;;;0.22;0.22;;;;;;;;;;5068399;28;20032;-61
2022/03/25 15:13:10;;;;;;;1.65;0.80;;;;;;;;;;5068631;28;20516;-62
2022/03/25 15:15:38;;;;;;;5.35;2.70;;;;;;;;;;5068437;28;20032;-62
2022/03/25 15:18:03;;;;;;;2.85;2.10;;;;;;;;;;5050259;28;20142;-62
2022/03/25 15:20:29;;;;;;;5.10;3.25;;;;;;;;;;5068396;28;20103;-61
2022/03/25 15:22:54;;;;;;;17.58;3.60;;;;;;;;;;5068032;28;20041;-61
2022/03/25 15:25:20;;;;;;;0.40;0.40;;;;;;;;;;5068657;28;20166;-62
2022/03/25 15:27:48;;;;;;;2.42;1.77;;;;;;;;;;5068307;28;20020;-61
2022/03/25 15:35:41;;;;;;;3.40;2.35;;;;;;;;;;5068082;28;20141;-61
2022/03/25 15:38:07;;;;;;;1.08;0.98;;;;;;;;;;5068058;28;20036;-61
2022/03/25 15:40:32;;;;;;;4.05;3.10;;;;;;;;;;5068261;28;20112;-61
2022/03/25 15:42:58;;;;;;;4.88;2.95;;;;;;;;;;5080341;28;20043;-61
2022/03/25 15:45:24;;;;;;;3.15;2.08;;;;;;;;;;5089376;28;20543;-61
2022/03/25 15:47:50;;;;;;;0.68;0.68;;;;;;;;;;5087696;28;20134;-62
2022/03/25 15:50:16;;;;;;;2.40;2.17;;;;;;;;;;5088280;28;20040;-60
2022/03/25 15:52:42;;;;;;;0.20;0.20;;;;;;;;;;5088814;28;20081;-60
2022/03/25 15:55:08;;;;;;;3.47;2.50;;;;;;;;;;5088831;28;20449;-61
2022/03/25 15:57:34;;;;;;;2.75;0.88;;;;;;;;;;5088225;28;20040;-61
2022/03/25 16:00:02;;;;;;;0.20;0.20;;;;;;;;;;5088194;28;20028;-62
2022/03/25 16:02:37;;;;;;;4.13;2.40;;;;;;;;;;5088624;28;20043;-61
2022/03/25 16:05:03;;;;;;;2.17;1.48;;;;;;;;;;5087739;28;20731;-62
2022/03/25 16:07:29;;;;;;;4.15;2.70;;;;;;;;;;5087763;28;20454;-62
2022/03/25 16:09:55;;;;;;;0.73;0.73;;;;;;;;;;5069840;28;20401;-61
2022/03/25 16:12:20;;;;;;;0.77;0.77;;;;;;;;;;5087758;28;20541;-62
2022/03/25 16:14:47;;;;;;;0.98;0.98;;;;;;;;;;5088913;28;20441;-62
2022/03/25 16:17:12;;;;;;;2.90;1.85;;;;;;;;;;5088570;28;20036;-61
2022/03/25 16:19:39;;;;;;;0.38;0.38;;;;;;;;;;5070446;28;20096;-62
2022/03/25 16:22:05;;;;;;;5.13;3.85;;;;;;;;;;5088232;28;20036;-62
2022/03/25 16:24:30;;;;;;;4.15;2.30;;;;;;;;;;5087406;28;20135;-62
2022/03/25 16:26:56;;;;;;;0.20;0.20;;;;;;;;;;5088231;28;20031;-60
2022/03/25 16:29:22;;;;;;;0.73;0.70;;;;;;;;;;5088062;28;20063;-61
2022/03/25 16:31:49;;;;;;;5.38;1.70;;;;;;;;;;5088183;28;20056;-62
2022/03/25 16:34:14;;;;;;;0.93;0.85;;;;;;;;;;5087726;28;20479;-62
2022/03/25 16:36:40;;;;;;;6.22;3.25;;;;;;;;;;5057386;28;20074;-61
2022/03/25 16:39:05;;;;;;;4.53;3.55;;;;;;;;;;5047740;28;20373;-60
2022/03/25 16:41:31;;;;;;;3.40;2.83;;;;;;;;;;5047515;28;20574;-61
2022/03/25 16:43:58;;;;;;;0.63;0.40;;;;;;;;;;5047709;28;20045;-60
2022/03/25 16:46:24;;;;;;;4.45;1.65;;;;;;;;;;5029128;28;20025;-61
2022/03/25 16:48:50;;;;;;;4.90;3.10;;;;;;;;;;5047855;28;20037;-60
2022/03/25 16:51:15;;;;;;;7.88;4.30;;;;;;;;;;5048135;28;20480;-60
2022/03/25 16:53:41;;;;;;;0.20;0.20;;;;;;;;;;5047963;28;20484;-61
2022/03/25 16:56:07;;;;;;;2.15;1.95;;;;;;;;;;5046878;28;20048;-61
2022/03/25 16:58:32;;;;;;;5.38;2.58;;;;;;;;;;5030291;28;20037;-60
2022/03/25 17:00:58;;;;;;;2.20;1.88;;;;;;;;;;5049138;28;20433;-60
2022/03/25 17:03:23;;;;;;;8.20;4.50;;;;;;;;;;5049409;28;20212;-60
2022/03/25 17:05:49;;;;;;;1.42;1.30;;;;;;;;;;5049257;28;20040;-60
2022/03/25 17:08:14;;;;;;;0.25;0.25;;;;;;;;;;5049156;28;20036;-59
2022/03/25 17:10:40;;;;;;;5.97;3.15;;;;;;;;;;5049018;28;20063;-60
2022/03/25 17:13:06;;;;;;;4.25;2.28;;;;;;;;;;5049390;28;20437;-59